Feldkirch, Austria
Current Conditions -  °F | °C
As of 2:20 PM on Saturday 20 Dec 2014 (Local Time) from LSZR Reporting Station
Broken Clouds Broken Clouds  
Wind Chill: 40°   Ceiling: 2000
Heat Index: 46°   Visibility: 6mi
Dew Point: 37°   Wind: 15mph
Humidity: 71%   Direction: 280°W
Pressure: 30.27"   Gusts: NA
Location:  47.25°N, 9.59°E
Report Text: LSZR 201220Z 28013KT 9999 BKN020 08/03 Q1025 NOSIG RMK I
Loading
Personal Weather Stations






























Interactive Weather Map New forecast layout! Learn more

10-Day Weather Forecast

Advertisements
Track Severe Weather on mobile